createdAt,value
2017-07-14T07:38:03.518Z,1220
2017-07-14T07:39:08.498Z,1244
2017-07-14T07:40:13.683Z,1252
2017-07-14T07:41:18.093Z,1276
2017-07-14T07:47:25.599Z,1408
2017-07-14T07:48:29.373Z,1420
2017-07-14T07:49:32.252Z,1432
2017-07-14T07:50:34.288Z,1440
2017-07-14T07:55:46.768Z,1648
2017-07-14T07:56:52.471Z,1752
2017-07-14T07:57:54.378Z,1860
2017-07-14T07:58:57.151Z,1936
2017-07-14T08:00:01.976Z,1984
2017-07-14T08:01:04.161Z,2008
2017-07-14T08:02:06.203Z,1964
2017-07-14T08:03:19.798Z,1948
2017-07-14T08:04:32.598Z,1924
2017-07-14T08:05:35.739Z,1788
2017-07-14T08:06:38.325Z,1668
2017-07-14T08:07:40.405Z,1600
2017-07-14T08:08:42.321Z,1552
2017-07-14T08:09:44.693Z,1504
2017-07-14T08:10:46.891Z,1552
2017-07-14T08:11:49.301Z,1640
2017-07-14T08:12:52.036Z,1716
2017-07-14T08:13:54.233Z,1792
2017-07-14T08:14:56.239Z,1832
2017-07-14T08:15:58.348Z,1844
2017-07-14T08:24:13.083Z,2004
2017-07-14T08:25:16.501Z,2100
2017-07-14T08:26:21.602Z,2112
2017-07-14T08:27:23.661Z,2160
2017-07-14T08:28:25.805Z,2216
2017-07-14T08:29:31.104Z,2288
2017-07-14T08:30:33.816Z,2292
2017-07-14T08:31:52.352Z,2360
2017-07-14T08:32:59.744Z,2428
2017-07-14T08:34:03.396Z,2632
2017-07-14T08:35:06.857Z,2740
2017-07-14T08:36:09.506Z,2800
2017-07-14T08:37:11.477Z,3076
2017-07-14T08:38:13.530Z,3420
2017-07-14T08:39:17.361Z,3868
2017-07-14T08:40:20.094Z,3596
2017-07-14T08:41:23.517Z,3908
2017-07-14T08:42:25.912Z,3936
2017-07-14T08:43:28.481Z,3732
2017-07-14T08:44:30.584Z,3732
2017-07-14T08:45:41.216Z,4192
2017-07-14T08:46:44.825Z,4556
2017-07-14T08:47:50.023Z,4456
2017-07-14T08:48:52.205Z,5140
2017-07-14T08:49:54.860Z,5108
2017-07-14T08:50:57.944Z,4904
2017-07-14T08:51:59.876Z,5092
2017-07-14T08:53:09.633Z,5124
2017-07-14T08:54:11.820Z,5400
2017-07-14T08:55:14.087Z,5536
2017-07-14T08:56:17.759Z,5268
2017-07-14T08:57:21.428Z,5076
2017-07-14T08:58:25.028Z,4204
2017-07-14T08:59:29.304Z,3072
2017-07-14T09:00:31.501Z,2840
2017-07-14T09:01:34.326Z,2648
2017-07-14T09:02:36.465Z,2588
2017-07-14T09:03:39.067Z,2752
2017-07-14T09:04:41.638Z,2952
2017-07-14T09:05:43.521Z,3340
2017-07-14T09:06:46.526Z,4232
2017-07-14T09:07:48.540Z,4992
2017-07-14T09:08:53.940Z,7976
2017-07-14T09:09:57.553Z,10020
2017-07-14T09:10:59.711Z,16160
2017-07-14T09:12:01.884Z,13168
2017-07-14T09:13:03.790Z,32384
2017-07-14T09:14:05.714Z,36704
2017-07-14T09:15:09.661Z,33472
2017-07-14T09:16:13.016Z,5896
2017-07-14T09:17:16.746Z,32480
2017-07-14T09:18:27.542Z,28736
2017-07-14T09:19:33.724Z,31456
2017-07-14T09:20:36.142Z,22304
2017-07-14T09:21:38.765Z,18496
2017-07-14T09:22:41.570Z,15808
2017-07-14T09:23:44.671Z,17824
2017-07-14T09:24:47.358Z,25120
2017-07-14T09:25:49.385Z,12488
2017-07-14T09:26:51.371Z,14108
2017-07-14T09:27:53.902Z,15936
2017-07-14T09:28:55.970Z,15296
2017-07-14T09:29:58.013Z,26432
2017-07-14T09:31:00.086Z,42784
2017-07-14T09:32:02.069Z,3992
2017-07-14T09:33:05.127Z,3552
2017-07-14T09:34:07.063Z,4156
2017-07-14T09:35:08.997Z,5008
2017-07-14T09:36:11.218Z,52640
2017-07-14T09:37:13.231Z,14688
2017-07-14T09:38:15.542Z,15744
2017-07-14T09:39:18.521Z,16896
2017-07-14T09:40:20.468Z,27680
2017-07-14T09:41:24.057Z,19808
2017-07-14T09:42:27.008Z,39840
2017-07-14T09:43:41.839Z,42528
2017-07-14T09:44:43.966Z,39680
2017-07-14T09:45:45.945Z,14720
2017-07-14T09:46:52.495Z,13044
2017-07-14T09:47:56.075Z,14040
2017-07-14T09:48:59.246Z,15072
2017-07-14T09:50:02.052Z,29696
2017-07-14T09:51:03.977Z,45792
2017-07-14T09:52:06.565Z,39424
2017-07-14T09:53:10.737Z,42016
2017-07-14T09:54:12.980Z,43424
2017-07-14T09:55:14.995Z,15232
2017-07-14T09:56:17.389Z,13696
2017-07-14T09:57:19.632Z,13408
2017-07-14T09:58:23.390Z,12280
2017-07-14T09:59:26.725Z,11912
2017-07-14T10:00:30.239Z,10416
2017-07-14T10:01:32.969Z,11004
2017-07-14T10:02:35.014Z,9160
2017-07-14T10:03:37.053Z,9608
2017-07-14T10:04:41.029Z,10504
2017-07-14T10:07:08.703Z,11108
2017-07-14T10:08:10.830Z,11964
2017-07-14T10:09:12.677Z,11520
2017-07-14T10:10:14.958Z,11624
2017-07-14T10:11:16.843Z,10280
2017-07-14T10:12:18.663Z,16896
2017-07-14T10:13:20.566Z,33344
2017-07-14T10:14:22.576Z,33408
2017-07-14T10:15:26.443Z,34560
2017-07-14T10:16:28.466Z,31072
2017-07-14T10:17:32.142Z,45984
2017-07-14T10:18:37.159Z,33536
2017-07-14T10:19:39.082Z,23776
2017-07-14T10:20:41.576Z,23232
2017-07-14T10:21:46.642Z,24512
2017-07-14T10:22:56.579Z,8224
2017-07-14T10:23:58.662Z,3776
2017-07-14T10:25:03.830Z,2852
2017-07-14T10:26:10.320Z,2248
2017-07-14T10:27:13.346Z,1928
2017-07-14T10:28:16.508Z,2316
2017-07-14T10:29:18.324Z,3764
2017-07-14T10:30:20.832Z,8304
2017-07-14T10:31:22.886Z,8908
2017-07-14T10:32:24.855Z,53312
2017-07-14T10:33:26.642Z,68864
2017-07-14T10:34:28.635Z,40032
2017-07-14T10:35:30.376Z,52768
2017-07-14T10:36:32.609Z,60448
2017-07-14T10:37:36.095Z,61632
2017-07-14T10:38:38.583Z,64672
2017-07-14T10:39:40.504Z,82336
2017-07-14T10:40:42.478Z,86720
2017-07-14T10:41:44.979Z,85536
2017-07-14T10:42:46.914Z,86336
2017-07-14T10:43:48.784Z,87744
2017-07-14T10:44:50.797Z,83744
2017-07-14T10:45:52.825Z,2916
2017-07-14T10:46:55.234Z,2624
2017-07-14T10:48:40.715Z,3644
2017-07-14T10:49:43.068Z,63520
2017-07-14T10:50:44.985Z,92992
2017-07-14T10:51:47.676Z,92032
2017-07-14T10:52:49.883Z,89760
2017-07-14T10:53:53.876Z,91296
2017-07-14T10:54:56.400Z,94784
2017-07-14T10:56:00.482Z,94304
2017-07-14T10:57:03.126Z,93728
2017-07-14T10:58:06.132Z,93920
2017-07-14T10:59:08.842Z,98240
2017-07-14T11:00:10.802Z,96352
2017-07-14T11:01:12.755Z,96480
2017-07-14T11:02:14.671Z,94656
2017-07-14T11:03:17.769Z,92672
2017-07-14T11:04:19.645Z,96608
2017-07-14T11:05:21.852Z,98976
2017-07-14T11:06:24.819Z,88544
2017-07-14T11:07:26.816Z,63040
2017-07-14T11:08:29.254Z,8564
2017-07-14T11:09:31.487Z,3224
2017-07-14T11:10:33.449Z,4436
2017-07-14T11:11:35.310Z,9696
2017-07-14T11:12:37.299Z,87744
2017-07-14T11:13:39.387Z,19200
2017-07-14T11:14:41.755Z,7104
2017-07-14T11:15:43.922Z,7972
2017-07-14T11:16:46.625Z,88672
2017-07-14T11:17:48.697Z,90080
2017-07-14T11:18:51.016Z,73856
2017-07-14T11:19:53.941Z,96096
2017-07-14T11:20:55.831Z,98816
2017-07-14T11:21:58.096Z,98496
2017-07-14T11:23:00.065Z,95424
2017-07-14T11:24:03.697Z,87296
2017-07-14T11:25:05.827Z,90976
2017-07-14T11:26:07.660Z,93760
2017-07-14T11:27:09.739Z,95552
2017-07-14T11:28:15.843Z,43936
2017-07-14T11:29:18.025Z,80800
2017-07-14T11:30:19.792Z,52192
2017-07-14T11:31:21.607Z,73408
2017-07-14T11:32:23.464Z,83328
2017-07-14T11:33:26.300Z,91872
2017-07-14T11:34:28.828Z,88640
2017-07-14T11:35:30.792Z,77184
2017-07-14T11:36:33.731Z,96256
2017-07-14T11:37:36.415Z,94880
2017-07-14T11:38:41.614Z,93248
2017-07-14T11:39:43.920Z,97312
2017-07-14T11:40:46.246Z,89568
2017-07-14T11:41:47.983Z,61088
2017-07-14T11:42:50.378Z,96672
2017-07-14T11:43:52.251Z,62368
2017-07-14T11:44:54.346Z,60832
2017-07-14T11:45:56.253Z,68896
2017-07-14T11:46:58.263Z,85216
2017-07-14T11:48:01.057Z,85024
2017-07-14T11:49:02.795Z,14152
2017-07-14T11:50:05.963Z,88576
2017-07-14T11:51:08.071Z,85344
2017-07-14T11:52:09.917Z,53952
2017-07-14T11:53:11.746Z,88928
2017-07-14T11:54:13.541Z,19488
2017-07-14T11:55:15.905Z,16032
2017-07-14T11:56:18.001Z,8988
2017-07-14T11:57:20.116Z,6560
2017-07-14T11:58:22.098Z,4956
2017-07-14T11:59:23.819Z,3384
2017-07-14T12:00:25.871Z,2796
2017-07-14T12:01:27.743Z,2480
2017-07-14T12:02:30.727Z,2196
2017-07-14T12:03:32.631Z,1952
2017-07-14T12:04:35.323Z,1672
2017-07-14T12:05:37.853Z,1616
2017-07-14T12:06:40.168Z,1660
2017-07-14T12:07:42.164Z,1944
2017-07-14T12:08:44.184Z,2232
2017-07-14T12:09:45.995Z,2308
2017-07-14T12:10:48.213Z,2224
2017-07-14T12:11:49.966Z,2168
2017-07-14T12:12:51.831Z,2180
2017-07-14T12:13:54.157Z,2244
2017-07-14T12:14:56.009Z,2492
2017-07-14T12:15:58.174Z,2408
2017-07-14T12:17:02.026Z,2164
2017-07-14T12:18:03.994Z,2024
2017-07-14T12:19:06.186Z,1932
2017-07-14T12:20:08.055Z,1796
2017-07-14T12:21:11.426Z,1724
2017-07-14T12:22:13.704Z,1620
2017-07-14T12:23:17.807Z,1616
2017-07-14T12:24:20.564Z,1660
2017-07-14T12:25:23.548Z,1516
2017-07-14T12:26:31.913Z,1436
2017-07-14T12:27:35.909Z,1460
2017-07-14T12:28:40.026Z,1600
2017-07-14T12:29:42.124Z,1860
2017-07-14T12:32:51.089Z,2784
2017-07-14T12:33:55.388Z,3060
2017-07-14T12:34:59.651Z,2884
2017-07-14T12:36:01.428Z,2600
2017-07-14T12:37:03.528Z,2280
2017-07-14T12:38:19.403Z,1960
2017-07-14T12:39:22.841Z,1624
2017-07-14T12:40:24.970Z,1400
2017-07-14T12:45:05.529Z,1080
2017-07-14T12:46:53.658Z,1176
2017-07-14T12:47:56.190Z,1360
2017-07-14T12:50:36.972Z,1240
2017-07-14T12:54:22.613Z,1492
2017-07-14T12:55:28.908Z,1624
2017-07-14T12:56:32.119Z,1752
2017-07-14T12:57:34.005Z,1720
2017-07-14T12:58:36.257Z,1708
2017-07-14T12:59:38.177Z,1668
2017-07-14T13:00:41.519Z,1640
2017-07-14T13:01:46.098Z,1640
2017-07-14T13:02:49.879Z,1632
2017-07-14T13:03:52.540Z,1680
2017-07-14T13:04:54.479Z,2012
2017-07-14T13:05:56.360Z,1872
2017-07-14T13:06:58.665Z,1924
2017-07-14T13:08:00.486Z,1852
2017-07-14T13:09:03.072Z,1668
2017-07-14T13:10:05.081Z,1632
2017-07-14T13:11:08.921Z,1468
2017-07-14T13:12:11.664Z,1420
2017-07-14T13:13:13.640Z,1392
2017-07-14T13:14:17.387Z,1316
2017-07-14T13:15:24.468Z,1056
2017-07-14T13:16:26.734Z,884
2017-07-14T13:17:29.306Z,900
2017-07-14T13:18:31.498Z,972
2017-07-14T13:19:34.563Z,1044
2017-07-14T13:20:37.166Z,1152
2017-07-14T13:21:39.093Z,1204
2017-07-14T13:22:42.217Z,1352
2017-07-14T13:23:46.317Z,1476
2017-07-14T13:24:48.336Z,1528
2017-07-14T13:25:53.494Z,1560
2017-07-14T13:26:55.511Z,1492
2017-07-14T13:27:58.532Z,1436
2017-07-14T13:29:03.013Z,1372
2017-07-14T13:30:06.904Z,1332
2017-07-14T13:31:11.399Z,1352
2017-07-14T13:32:15.315Z,1372
2017-07-14T13:33:17.729Z,1344
2017-07-14T13:34:21.390Z,1404
2017-07-14T13:35:23.400Z,1572
2017-07-14T13:36:26.635Z,1848
2017-07-14T13:37:29.260Z,1972
2017-07-14T13:38:32.499Z,1848
2017-07-14T13:39:35.029Z,1832
2017-07-14T13:40:41.567Z,1748
2017-07-14T13:41:45.020Z,1776
2017-07-14T13:42:47.541Z,1904
2017-07-14T13:43:50.495Z,1844
2017-07-14T13:44:54.852Z,1860
2017-07-14T13:45:57.098Z,1924
2017-07-14T13:47:02.929Z,2084
2017-07-14T13:48:06.467Z,2184
2017-07-14T13:49:10.301Z,2280
2017-07-14T13:50:12.807Z,2516
2017-07-14T13:51:17.100Z,2864
2017-07-14T13:52:19.413Z,3092
2017-07-14T13:53:24.295Z,2964
2017-07-14T13:54:26.293Z,2556
2017-07-14T13:55:31.433Z,2300
2017-07-14T13:56:34.630Z,2140
2017-07-14T13:57:36.983Z,2004
2017-07-14T13:58:38.994Z,1896
2017-07-14T13:59:42.870Z,1992
2017-07-14T14:00:44.875Z,2000
2017-07-14T14:01:47.688Z,1892
2017-07-14T14:02:50.145Z,1872
2017-07-14T14:03:52.021Z,2196
2017-07-14T14:04:53.807Z,2600
2017-07-14T14:05:56.109Z,2864
2017-07-14T14:06:57.766Z,2696
2017-07-14T14:07:59.841Z,2264
2017-07-14T14:09:01.587Z,1920
2017-07-14T14:10:03.389Z,1744
2017-07-14T14:11:06.032Z,1600
2017-07-14T14:12:07.733Z,1556
2017-07-14T14:13:10.289Z,1424
2017-07-14T14:14:11.961Z,1320
2017-07-14T14:15:13.789Z,1308
2017-07-14T14:16:15.564Z,1384
2017-07-14T14:17:18.305Z,1384
2017-07-14T14:18:20.461Z,1396
2017-07-14T14:19:22.896Z,1448
2017-07-14T14:20:24.558Z,1528
2017-07-14T14:21:26.407Z,1540
2017-07-14T14:22:28.295Z,1584
2017-07-14T14:23:30.373Z,1600
2017-07-14T14:24:32.549Z,1540
2017-07-14T14:25:33.862Z,1476
2017-07-14T14:26:35.577Z,1544
2017-07-14T14:27:37.408Z,1568
2017-07-14T14:28:39.661Z,1524
2017-07-14T14:29:41.346Z,1484
2017-07-14T14:30:43.045Z,1480
2017-07-14T14:31:44.777Z,1416
2017-07-14T14:32:46.527Z,1360
2017-07-14T14:33:48.744Z,1348
2017-07-14T14:34:50.509Z,1356
2017-07-14T14:35:52.356Z,1404
2017-07-14T14:36:54.148Z,1448
2017-07-14T14:37:55.998Z,1520
2017-07-14T14:38:59.531Z,1596
2017-07-14T14:40:01.284Z,1736
2017-07-14T14:41:05.330Z,1884
2017-07-14T14:42:07.152Z,2104
2017-07-14T14:43:11.540Z,2220
2017-07-14T14:44:13.855Z,2028
2017-07-14T14:45:15.829Z,1624
2017-07-14T14:46:17.617Z,1308
2017-07-14T14:47:21.164Z,1132
2017-07-14T14:48:23.573Z,972
2017-07-14T14:49:27.114Z,800
2017-07-14T14:50:28.921Z,676
2017-07-14T14:51:33.037Z,560
2017-07-14T14:52:34.808Z,444
2017-07-14T14:53:38.821Z,356
2017-07-14T14:54:40.699Z,292
2017-07-14T14:55:44.769Z,260
2017-07-14T14:56:46.760Z,268
2017-07-14T14:57:50.764Z,320
2017-07-14T14:58:54.451Z,356
2017-07-14T14:59:58.337Z,340
2017-07-14T15:01:00.278Z,296
2017-07-14T15:02:04.307Z,304
2017-07-14T15:03:09.526Z,340
2017-07-14T16:35:16.334Z,1156
2017-07-14T17:54:34.043Z,308
2017-07-14T17:56:11.271Z,344
2017-07-14T17:57:15.075Z,344
2017-07-14T17:58:17.523Z,416
